createdAt,value
2019-02-21T00:01:12.916Z,11.27
2019-02-21T00:04:16.459Z,11.37
2019-02-21T00:10:02.038Z,11.07
2019-02-21T00:15:48.491Z,12.53
2019-02-21T00:21:32.975Z,12.10
2019-02-21T00:24:33.276Z,12.67
2019-02-21T00:27:34.429Z,11.97
2019-02-21T00:30:35.658Z,12.40
2019-02-21T00:36:20.882Z,12.70
2019-02-21T00:45:16.363Z,16.40
2019-02-21T00:48:16.804Z,14.20
2019-02-21T00:51:17.352Z,14.07
2019-02-21T00:57:02.627Z,17.07
2019-02-21T01:03:39.781Z,21.57
2019-02-21T01:06:39.362Z,18.80
2019-02-21T01:09:59.746Z,19.83
2019-02-21T01:13:01.094Z,13.73
2019-02-21T01:19:12.820Z,11.93
2019-02-21T01:22:13.602Z,12.40
2019-02-21T01:27:58.386Z,12.23
2019-02-21T01:33:43.736Z,13.60
2019-02-21T01:36:44.874Z,12.67
2019-02-21T01:42:30.484Z,12.37
2019-02-21T01:48:21.003Z,13.00
2019-02-21T01:54:06.368Z,11.87
2019-02-21T01:57:07.976Z,12.20
2019-02-21T02:02:53.295Z,12.17
2019-02-21T02:08:38.272Z,13.30
2019-02-21T02:14:46.177Z,12.90
2019-02-21T02:17:46.674Z,13.03
2019-02-21T02:30:20.645Z,11.57
2019-02-21T02:33:21.321Z,10.87
2019-02-21T02:39:04.879Z,12.60
2019-02-21T02:42:05.392Z,12.17
2019-02-21T02:47:51.244Z,12.40
2019-02-21T02:53:37.832Z,10.73
2019-02-21T02:59:22.705Z,11.03
2019-02-21T03:05:06.228Z,10.13
2019-02-21T03:08:09.751Z,10.97
2019-02-21T03:14:49.612Z,10.47
2019-02-21T03:20:37.182Z,11.33
2019-02-21T03:26:22.856Z,10.53
2019-02-21T03:29:23.409Z,11.00
2019-02-21T03:42:17.299Z,14.57
2019-02-21T03:45:18.031Z,14.07
2019-02-21T03:51:02.668Z,11.67
2019-02-21T03:56:47.905Z,11.60
2019-02-21T03:59:48.194Z,11.73
2019-02-21T04:02:49.538Z,11.40
2019-02-21T04:05:50.424Z,12.10
2019-02-21T04:11:35.459Z,12.27
2019-02-21T04:17:20.072Z,12.17
2019-02-21T04:23:06.815Z,11.63
2019-02-21T04:26:07.468Z,11.87
2019-02-21T04:31:52.063Z,12.70
2019-02-21T04:37:38.344Z,12.50
2019-02-21T04:43:18.760Z,13.10
2019-02-21T04:46:22.212Z,12.03
2019-02-21T04:56:13.174Z,12.53
2019-02-21T04:59:13.781Z,11.97
2019-02-21T05:02:14.440Z,12.53
2019-02-21T05:07:59.042Z,13.03
2019-02-21T05:13:44.531Z,13.13
2019-02-21T05:20:10.759Z,12.67
2019-02-21T05:23:11.836Z,12.20
2019-02-21T05:26:16.351Z,12.80
2019-02-21T05:29:17.138Z,15.93
2019-02-21T05:32:20.752Z,13.47
2019-02-21T05:38:07.688Z,12.53
2019-02-21T05:43:52.040Z,12.83
2019-02-21T05:49:40.209Z,12.17
2019-02-21T05:52:50.999Z,12.07
2019-02-21T05:58:36.277Z,12.90
2019-02-21T06:04:21.723Z,13.03
2019-02-21T06:18:00.603Z,14.27
2019-02-21T06:31:31.098Z,13.67
2019-02-21T06:34:24.182Z,15.00
2019-02-21T06:48:26.886Z,14.13
2019-02-21T06:51:28.168Z,14.87
2019-02-21T06:57:14.942Z,15.03
2019-02-21T07:00:16.013Z,14.63
2019-02-21T07:06:01.993Z,14.10
2019-02-21T07:11:46.635Z,15.33
2019-02-21T07:17:31.846Z,14.83
2019-02-21T07:20:33.019Z,14.97
2019-02-21T07:26:20.368Z,15.90
2019-02-21T07:29:22.298Z,14.40
2019-02-21T07:32:23.190Z,15.43
2019-02-21T07:38:08.866Z,16.30
2019-02-21T07:41:09.459Z,14.80
2019-02-21T07:47:50.370Z,15.67
2019-02-21T07:53:35.845Z,17.27
2019-02-21T07:56:42.116Z,16.57
2019-02-21T08:02:23.256Z,15.80
2019-02-21T08:08:09.283Z,17.47
2019-02-21T08:13:55.286Z,17.23
2019-02-21T08:16:56.377Z,16.87
2019-02-21T08:22:41.358Z,15.67
2019-02-21T08:28:26.116Z,16.03
2019-02-21T08:34:10.876Z,16.53
2019-02-21T08:40:17.448Z,16.90
2019-02-21T08:43:17.821Z,17.67
2019-02-21T08:49:04.268Z,17.40
2019-02-21T08:54:59.567Z,15.93
2019-02-21T08:57:51.489Z,15.90
2019-02-21T09:03:37.837Z,17.20
2019-02-21T09:09:43.120Z,16.30
2019-02-21T09:19:36.687Z,16.07
2019-02-21T09:22:36.804Z,15.17
2019-02-21T09:31:37.146Z,14.93
2019-02-21T09:34:36.782Z,16.10
2019-02-21T09:37:38.034Z,14.20
2019-02-21T09:43:22.972Z,14.23
2019-02-21T09:49:10.836Z,14.57
2019-02-21T09:55:10.522Z,14.50
2019-02-21T09:58:11.090Z,15.50
2019-02-21T10:03:57.335Z,14.80
2019-02-21T10:09:42.432Z,14.50
2019-02-21T10:12:42.764Z,15.53
2019-02-21T10:15:43.719Z,15.63
2019-02-21T10:18:45.049Z,14.47
2019-02-21T10:24:29.574Z,15.07
2019-02-21T10:30:15.479Z,15.40
2019-02-21T10:36:00.950Z,14.03
2019-02-21T10:42:11.714Z,16.40
2019-02-21T10:45:12.962Z,16.90
2019-02-21T10:50:58.869Z,16.13
2019-02-21T10:56:44.282Z,15.17
2019-02-21T11:02:30.119Z,16.37
2019-02-21T11:05:30.674Z,15.43
2019-02-21T11:11:41.846Z,15.17
2019-02-21T11:17:26.648Z,15.53
2019-02-21T11:23:11.754Z,16.60
2019-02-21T11:26:14.883Z,16.63
2019-02-21T11:32:00.049Z,15.97
2019-02-21T11:37:46.867Z,16.80
2019-02-21T11:43:30.611Z,16.63
2019-02-21T11:46:32.055Z,16.33
2019-02-21T11:49:33.382Z,16.00
2019-02-21T11:52:34.149Z,14.90
2019-02-21T11:58:18.858Z,14.93
2019-02-21T12:01:20.156Z,13.63
2019-02-21T12:04:20.958Z,15.20
2019-02-21T12:07:21.686Z,15.50
2019-02-21T12:13:08.470Z,15.27
2019-02-21T12:22:06.046Z,15.67
2019-02-21T12:27:52.324Z,14.50
2019-02-21T12:33:37.622Z,15.53
2019-02-21T12:36:38.878Z,15.27
2019-02-21T12:39:39.788Z,13.93
2019-02-21T12:42:40.368Z,13.70
2019-02-21T12:48:25.312Z,12.80
2019-02-21T12:54:12.865Z,13.13
2019-02-21T12:59:59.716Z,11.20
2019-02-21T13:03:00.437Z,11.97
2019-02-21T13:11:51.397Z,12.47
2019-02-21T13:14:52.096Z,10.67
2019-02-21T13:17:52.347Z,12.17
2019-02-21T13:20:53.662Z,12.60
2019-02-21T13:23:54.528Z,11.67
2019-02-21T13:29:39.188Z,11.87
2019-02-21T13:32:40.365Z,11.00
2019-02-21T13:35:39.002Z,11.17
2019-02-21T13:41:22.860Z,10.47
2019-02-21T13:47:33.688Z,11.30
2019-02-21T13:50:34.236Z,11.07
2019-02-21T13:57:21.349Z,11.83
2019-02-21T14:00:21.891Z,10.30
2019-02-21T14:06:05.015Z,12.10
2019-02-21T14:11:53.419Z,11.67
2019-02-21T14:14:58.914Z,10.00
2019-02-21T14:20:46.625Z,10.23
2019-02-21T14:24:04.908Z,9.57
2019-02-21T14:27:05.339Z,10.57
2019-02-21T14:30:23.791Z,11.13
2019-02-21T14:36:15.509Z,10.87
2019-02-21T14:41:56.291Z,9.77
2019-02-21T14:47:40.640Z,9.63
2019-02-21T14:50:41.747Z,9.57
2019-02-21T14:56:26.480Z,10.80
2019-02-21T15:02:06.992Z,12.60
2019-02-21T15:17:37.305Z,13.23
2019-02-21T15:23:20.927Z,13.43
2019-02-21T15:26:22.516Z,14.20
2019-02-21T15:33:22.905Z,12.97
2019-02-21T15:36:24.293Z,14.23
2019-02-21T15:39:24.872Z,14.93
2019-02-21T15:42:25.457Z,14.57
2019-02-21T15:48:09.324Z,16.40
2019-02-21T15:53:55.476Z,16.03
2019-02-21T15:59:42.258Z,15.33
2019-02-21T16:02:42.794Z,15.57
2019-02-21T16:08:27.013Z,16.07
2019-02-21T16:14:12.435Z,15.80
2019-02-21T16:20:38.330Z,17.30
2019-02-21T16:23:37.976Z,17.67
2019-02-21T16:26:37.426Z,16.60
2019-02-21T16:29:38.042Z,17.07
2019-02-21T16:32:39.328Z,16.67
2019-02-21T16:39:11.326Z,17.20
2019-02-21T16:44:57.109Z,16.47
2019-02-21T16:48:17.402Z,17.00
2019-02-21T16:54:21.147Z,19.63
2019-02-21T17:00:06.064Z,16.43
2019-02-21T17:05:50.214Z,21.07
2019-02-21T17:08:50.881Z,18.27
2019-02-21T17:18:03.680Z,17.30
2019-02-21T17:24:15.845Z,15.77
2019-02-21T17:30:00.522Z,16.07
2019-02-21T17:35:51.755Z,14.37
2019-02-21T17:38:51.807Z,15.73
2019-02-21T17:54:25.153Z,16.90
2019-02-21T17:57:26.221Z,20.70
2019-02-21T18:00:28.871Z,18.80
2019-02-21T18:07:07.738Z,19.57
2019-02-21T18:13:19.454Z,19.93
2019-02-21T18:16:19.962Z,19.37
2019-02-21T18:19:20.502Z,19.67
2019-02-21T18:25:05.728Z,19.17
2019-02-21T18:30:52.322Z,22.20
2019-02-21T18:33:53.222Z,21.10
2019-02-21T18:36:58.635Z,26.60
2019-02-21T18:39:59.828Z,23.37
2019-02-21T18:45:46.309Z,23.00
2019-02-21T18:51:26.495Z,22.70
2019-02-21T18:54:26.696Z,22.37
2019-02-21T18:57:26.270Z,22.30
2019-02-21T19:00:38.673Z,23.93
2019-02-21T19:06:23.518Z,23.73
2019-02-21T19:12:08.611Z,24.10
2019-02-21T19:15:12.304Z,23.37
2019-02-21T19:20:57.027Z,25.57
2019-02-21T19:23:58.158Z,23.57
2019-02-21T19:26:58.839Z,23.47
2019-02-21T19:29:58.921Z,24.63
2019-02-21T19:32:59.896Z,23.40
2019-02-21T19:36:01.014Z,25.03
2019-02-21T19:41:48.971Z,25.30
2019-02-21T20:05:07.953Z,26.53
2019-02-21T20:08:09.151Z,27.17
2019-02-21T20:11:10.001Z,25.83
2019-02-21T20:14:11.354Z,26.53
2019-02-21T20:17:12.298Z,25.73
2019-02-21T20:22:57.091Z,26.27
2019-02-21T20:28:41.981Z,24.93
2019-02-21T20:31:42.539Z,26.17
2019-02-21T20:37:27.447Z,26.30
2019-02-21T20:43:12.234Z,24.97
2019-02-21T20:48:58.466Z,23.73
2019-02-21T20:51:59.012Z,26.23
2019-02-21T20:57:43.838Z,24.80
2019-02-21T21:00:45.131Z,24.13
2019-02-21T21:03:45.951Z,23.77
2019-02-21T21:06:46.403Z,24.93
2019-02-21T21:09:47.578Z,31.37
2019-02-21T21:12:48.900Z,28.40
2019-02-21T21:18:33.857Z,25.03
2019-02-21T21:24:18.277Z,24.43
2019-02-21T21:27:19.659Z,24.30
2019-02-21T21:33:05.986Z,24.67
2019-02-21T21:38:53.989Z,23.70
2019-02-21T21:44:36.439Z,23.83
2019-02-21T21:50:42.460Z,24.33
2019-02-21T21:53:43.878Z,23.57
2019-02-21T21:59:29.467Z,24.40
2019-02-21T22:05:19.224Z,23.07
2019-02-21T22:08:20.482Z,22.70
2019-02-21T22:14:05.334Z,23.07
2019-02-21T22:19:50.030Z,21.47
2019-02-21T22:23:10.388Z,20.07
2019-02-21T22:26:11.106Z,20.50
2019-02-21T22:29:12.643Z,21.23
2019-02-21T22:32:13.862Z,20.63
2019-02-21T22:35:14.811Z,20.13
2019-02-21T22:38:15.935Z,19.27
2019-02-21T22:41:17.162Z,20.27
2019-02-21T22:44:18.071Z,18.87
2019-02-21T22:47:19.326Z,18.57
2019-02-21T22:50:20.117Z,19.80
2019-02-21T22:56:26.839Z,19.00
2019-02-21T23:05:18.679Z,18.93
2019-02-21T23:08:18.975Z,17.07
2019-02-21T23:11:19.523Z,18.67
2019-02-21T23:17:04.738Z,18.27
2019-02-21T23:20:06.078Z,17.60
2019-02-21T23:23:06.662Z,18.23
2019-02-21T23:26:07.158Z,17.40
2019-02-21T23:31:52.791Z,17.07
2019-02-21T23:37:38.722Z,17.87
2019-02-21T23:43:24.054Z,17.13
2019-02-21T23:50:03.697Z,16.63
2019-02-21T23:53:04.942Z,17.07
2019-02-21T23:58:51.325Z,16.97
